Time;durP1;ratioP1;P1;durP2;ratioP2;P2;SDS_P1;SDS_P2;PMS_P1;PMS_P2;Temp;Humidity;BMP_temperature;BMP_pressure;BME280_temperature;BME280_humidity;BME280_pressure;Samples;Min_cycle;Max_cycle;Signal;HPM_P1;HPM_P2
2021/06/30 00:01:30;;;;;;;5.90;2.83;;;;;;;17.67;100.00;99991.95;1728213;81;20981;-61
2021/06/30 00:03:57;;;;;;;5.00;2.93;;;;;;;17.69;100.00;99995.17;1729495;81;21054;-65
2021/06/30 00:06:24;;;;;;;6.43;2.93;;;;;;;17.72;100.00;99985.45;1728337;81;20931;-62
2021/06/30 00:08:54;;;;;;;5.87;3.00;;;;;;;17.36;100.00;99985.32;1728868;80;21199;-65
2021/06/30 00:11:20;;;;;;;5.03;2.47;;;;;;;17.29;100.00;99980.70;1727125;81;20974;-61
2021/06/30 00:13:47;;;;;;;3.93;2.77;;;;;;;17.23;100.00;99985.05;1728456;80;20987;-64
2021/06/30 00:16:16;;;;;;;5.00;3.10;;;;;;;17.25;100.00;99982.20;1727573;81;21025;-62
2021/06/30 00:18:43;;;;;;;7.43;3.80;;;;;;;17.31;100.00;99979.93;1727920;80;20943;-65
2021/06/30 00:21:09;;;;;;;4.90;3.40;;;;;;;17.28;100.00;99985.69;1727112;81;22134;-65
2021/06/30 00:23:36;;;;;;;5.60;3.33;;;;;;;17.25;100.00;99987.47;1728123;81;21555;-62
2021/06/30 00:26:03;;;;;;;5.03;2.97;;;;;;;16.96;100.00;99997.93;1718234;80;21528;-64
2021/06/30 00:28:30;;;;;;;4.93;3.20;;;;;;;16.82;100.00;100001.03;1727222;80;21039;-63
2021/06/30 00:30:58;;;;;;;3.87;2.90;;;;;;;17.09;100.00;99998.22;1728880;81;22077;-64
2021/06/30 00:33:25;;;;;;;4.97;3.30;;;;;;;17.20;100.00;99988.70;1727840;81;21503;-65
2021/06/30 00:35:51;;;;;;;3.93;2.90;;;;;;;17.28;100.00;99989.64;1727628;80;20985;-64
2021/06/30 00:38:19;;;;;;;4.80;2.80;;;;;;;17.24;100.00;99991.94;1747345;80;22555;-62
2021/06/30 00:40:46;;;;;;;5.00;2.83;;;;;;;17.38;100.00;99994.30;1708281;82;21323;-65
2021/06/30 00:43:13;;;;;;;4.70;3.03;;;;;;;17.46;100.00;99991.28;1751555;80;20914;-65
2021/06/30 00:45:40;;;;;;;4.83;3.67;;;;;;;17.47;100.00;99992.91;1708292;82;21115;-63
2021/06/30 00:48:07;;;;;;;6.53;3.13;;;;;;;17.53;100.00;99995.11;1750824;80;20943;-65
2021/06/30 00:50:34;;;;;;;6.20;3.03;;;;;;;17.51;100.00;100000.63;1719696;82;21034;-65
2021/06/30 00:53:00;;;;;;;5.90;3.17;;;;;;;17.41;100.00;99995.95;1750998;80;21006;-62
2021/06/30 00:55:27;;;;;;;4.30;3.70;;;;;;;17.43;100.00;99997.05;1719876;82;20990;-65
2021/06/30 00:57:53;;;;;;;5.47;3.60;;;;;;;17.35;100.00;99989.48;1706289;82;21163;-64
2021/06/30 01:00:20;;;;;;;8.40;3.63;;;;;;;17.16;100.00;99993.63;1751574;80;21416;-62
2021/06/30 01:02:47;;;;;;;8.40;2.83;;;;;;;17.37;100.00;99995.34;1706249;82;21057;-65
2021/06/30 01:05:15;;;;;;;5.53;3.00;;;;;;;17.32;100.00;99997.36;1751149;81;21066;-64
2021/06/30 01:07:42;;;;;;;6.63;3.03;;;;;;;17.35;100.00;99998.22;1718678;82;20927;-62
2021/06/30 01:10:10;;;;;;;4.57;3.63;;;;;;;17.15;100.00;99993.32;1675503;82;20910;-65
2021/06/30 01:12:37;;;;;;;5.43;3.77;;;;;;;17.14;100.00;99994.88;1690409;83;21015;-64
2021/06/30 01:15:06;;;;;;;5.73;2.80;;;;;;;17.14;100.00;99995.67;1678586;84;21176;-65
2021/06/30 01:17:33;;;;;;;6.53;3.70;;;;;;;17.06;100.00;100008.41;1685492;84;21600;-64
2021/06/30 01:20:00;;;;;;;5.83;3.57;;;;;;;17.20;100.00;100000.03;1678261;83;21152;-65
2021/06/30 01:22:27;;;;;;;5.77;3.73;;;;;;;17.36;100.00;100004.28;1686149;84;21122;-62
2021/06/30 01:24:54;;;;;;;6.57;3.60;;;;;;;17.49;100.00;100002.68;1678517;84;22525;-64
2021/06/30 01:27:21;;;;;;;5.77;3.27;;;;;;;17.35;100.00;100005.30;1683858;83;21194;-64
2021/06/30 01:29:48;;;;;;;4.47;3.33;;;;;;;17.34;100.00;100008.97;1707797;82;21541;-64
2021/06/30 01:32:14;;;;;;;5.70;3.70;;;;;;;17.34;100.00;100007.66;1678003;83;21042;-62
2021/06/30 01:34:41;;;;;;;4.73;3.60;;;;;;;17.25;100.00;100010.66;1677483;83;21117;-65
2021/06/30 01:37:07;;;;;;;6.87;3.83;;;;;;;17.24;100.00;100009.58;1699135;83;22385;-64
2021/06/30 01:39:35;;;;;;;5.43;2.90;;;;;;;17.11;100.00;100017.20;1700530;83;21494;-64
2021/06/30 01:42:04;;;;;;;5.77;4.00;;;;;;;17.04;100.00;100023.11;1678340;83;21304;-64
2021/06/30 01:44:31;;;;;;;5.83;3.87;;;;;;;17.08;100.00;100023.45;1685727;83;21614;-64
2021/06/30 01:46:58;;;;;;;6.10;3.67;;;;;;;17.15;100.00;100021.50;1681163;83;21167;-64
2021/06/30 01:49:25;;;;;;;6.23;3.83;;;;;;;17.26;100.00;100014.88;1684607;83;20907;-64
2021/06/30 01:51:52;;;;;;;6.60;3.67;;;;;;;17.24;100.00;100023.55;1689820;83;21512;-64
2021/06/30 01:54:19;;;;;;;6.57;3.40;;;;;;;17.26;100.00;100025.42;1679439;84;21108;-63
2021/06/30 01:56:49;;;;;;;5.23;3.43;;;;;;;17.41;100.00;100020.18;1699562;83;21035;-64
2021/06/30 01:59:17;;;;;;;4.28;3.47;;;;;;;17.78;100.00;100018.55;1678698;83;21788;-64
2021/06/30 02:01:44;;;;;;;4.97;3.20;;;;;;;17.85;100.00;100024.48;1685599;83;21018;-65
2021/06/30 02:04:10;;;;;;;6.03;4.00;;;;;;;18.10;100.00;100024.91;1681193;84;22338;-65
2021/06/30 02:06:43;;;;;;;4.60;3.53;;;;;;;18.59;100.00;100027.80;1684103;82;21183;-64
2021/06/30 02:09:11;;;;;;;4.57;3.03;;;;;;;19.08;100.00;100021.91;1697895;82;21125;-65
2021/06/30 02:11:40;;;;;;;5.10;3.37;;;;;;;19.87;100.00;100020.19;1710876;82;21436;-63
2021/06/30 02:14:08;;;;;;;4.60;3.20;;;;;;;20.47;100.00;100015.67;1696311;82;21440;-65
2021/06/30 02:16:37;;;;;;;5.40;3.07;;;;;;;21.08;100.00;100010.22;1709307;82;21495;-64
2021/06/30 02:19:06;;;;;;;5.10;2.97;;;;;;;21.72;100.00;100003.83;1713778;82;21096;-64
2021/06/30 02:21:33;;;;;;;4.77;2.43;;;;;;;22.40;100.00;100004.95;1708094;82;21469;-63
2021/06/30 02:24:01;;;;;;;4.03;2.80;;;;;;;23.02;100.00;99998.98;1717713;82;21148;-64
2021/06/30 02:26:28;;;;;;;4.07;3.10;;;;;;;23.61;100.00;99998.72;1726905;81;20979;-64
2021/06/30 02:28:56;;;;;;;4.00;2.80;;;;;;;24.30;100.00;99992.35;1727873;81;21219;-65
2021/06/30 02:31:23;;;;;;;5.30;2.90;;;;;;;24.86;100.00;99988.36;1727373;81;21062;-65
2021/06/30 02:33:50;;;;;;;5.57;2.97;;;;;;;25.57;100.00;99973.30;1723580;81;20849;-64
2021/06/30 02:36:18;;;;;;;6.40;3.10;;;;;;;26.18;100.00;99979.06;1716695;81;21222;-65
2021/06/30 02:38:46;;;;;;;4.00;2.93;;;;;;;26.71;100.00;99979.18;1731393;81;21058;-65
2021/06/30 02:41:12;;;;;;;3.63;3.00;;;;;;;27.27;100.00;99974.84;1721911;81;21003;-66
2021/06/30 02:43:39;;;;;;;4.45;3.33;;;;;;;27.54;100.00;99970.50;1730812;81;21295;-65
2021/06/30 02:46:06;;;;;;;3.85;3.12;;;;;;;28.04;100.00;99965.85;1719121;81;22066;-65
2021/06/30 02:48:32;;;;;;;3.60;2.85;;;;;;;28.54;100.00;99965.64;1730212;81;21477;-65
2021/06/30 02:50:59;;;;;;;5.45;3.37;;;;;;;28.88;100.00;99974.90;1718545;82;22288;-66
2021/06/30 02:53:25;;;;;;;4.78;3.65;;;;;;;29.23;100.00;99979.02;1680833;84;21532;-67
2021/06/30 02:55:53;;;;;;;7.55;3.62;;;;;;;29.43;95.94;99978.37;1726418;81;21003;-66
2021/06/30 02:58:20;;;;;;;8.80;3.92;;;;;;;29.64;91.84;99977.23;1725409;81;21066;-65
2021/06/30 03:00:47;;;;;;;5.12;3.40;;;;;;;29.87;87.86;99977.84;1711374;81;64222;-70
2021/06/30 03:03:14;;;;;;;4.22;3.52;;;;;;;30.34;83.30;99969.03;1648511;85;20955;-72
2021/06/30 03:05:40;;;;;;;4.00;3.08;;;;;;;30.52;80.95;99977.27;1648120;85;21036;-69
2021/06/30 03:08:07;;;;;;;5.00;3.00;;;;;;;30.93;73.33;99978.52;1702295;83;21573;-71
2021/06/30 03:10:34;;;;;;;4.03;3.00;;;;;;;31.22;68.27;99977.14;1698077;83;21026;-74
2021/06/30 03:13:01;;;;;;;4.78;3.12;;;;;;;31.60;65.01;99971.41;1701774;83;21156;-71
2021/06/30 03:15:28;;;;;;;5.65;3.52;;;;;;;32.03;62.06;99974.25;1667087;85;20987;-72
2021/06/30 03:17:55;;;;;;;5.62;3.15;;;;;;;32.28;58.66;99978.57;1671253;85;21038;-73
2021/06/30 03:20:21;;;;;;;10.43;4.67;;;;;;;32.64;56.22;99975.12;1701098;83;21357;-72
2021/06/30 03:22:48;;;;;;;11.93;4.45;;;;;;;32.85;53.84;99981.75;1695865;83;21063;-73
2021/06/30 03:25:16;;;;;;;11.45;4.22;;;;;;;33.29;51.80;99985.17;1695895;83;21759;-72
2021/06/30 03:27:44;;;;;;;15.98;4.90;;;;;;;33.31;49.91;99982.36;1692018;83;20971;-71
2021/06/30 03:30:12;;;;;;;12.20;3.47;;;;;;;33.29;50.13;99983.81;1679069;84;21015;-71
2021/06/30 03:32:38;;;;;;;13.62;3.75;;;;;;;33.31;49.06;99986.98;1669437;83;21267;-73
2021/06/30 03:35:07;;;;;;;12.78;3.72;;;;;;;33.50;47.77;99992.56;1641339;84;21105;-71
2021/06/30 03:37:34;;;;;;;8.25;3.95;;;;;;;33.61;47.79;99990.95;1639518;86;21155;-67
2021/06/30 03:40:00;;;;;;;12.70;3.67;;;;;;;33.99;47.04;99987.53;1640336;85;21043;-71
2021/06/30 03:42:27;;;;;;;11.40;3.62;;;;;;;34.27;45.17;99989.58;1654414;85;21047;-72
2021/06/30 03:44:54;;;;;;;8.38;3.37;;;;;;;34.54;44.88;99994.70;1646627;85;21506;-70
2021/06/30 03:47:20;;;;;;;8.38;3.55;;;;;;;35.06;43.79;99984.11;1670074;85;21118;-73
2021/06/30 03:49:47;;;;;;;12.15;3.77;;;;;;;35.48;43.24;99990.19;1697928;83;22243;-70
2021/06/30 03:52:14;;;;;;;11.85;4.10;;;;;;;36.09;40.99;99996.78;1701775;83;20993;-72
2021/06/30 03:54:41;;;;;;;15.18;4.17;;;;;;;36.42;39.71;99990.73;1696804;83;20905;-69
2021/06/30 03:57:08;;;;;;;9.63;3.50;;;;;;;36.39;39.14;99983.89;1662201;85;21038;-71
2021/06/30 03:59:34;;;;;;;11.75;4.53;;;;;;;36.05;38.96;99984.50;1698162;83;21036;-71
2021/06/30 04:02:02;;;;;;;12.63;4.72;;;;;;;34.99;40.46;99996.14;1697992;83;22885;-69
2021/06/30 04:04:29;;;;;;;8.28;3.67;;;;;;;33.84;42.99;99999.86;1705336;83;22009;-71
2021/06/30 04:06:56;;;;;;;12.05;4.20;;;;;;;32.89;46.08;99998.06;1692639;83;21063;-71
2021/06/30 04:09:24;;;;;;;9.38;4.12;;;;;;;32.07;50.18;100003.47;1700813;83;20965;-71
2021/06/30 04:11:50;;;;;;;10.85;4.65;;;;;;;31.43;54.00;100006.00;1697480;83;21375;-70
2021/06/30 04:14:17;;;;;;;12.40;4.80;;;;;;;30.59;59.14;100001.77;1699769;83;21570;-70
2021/06/30 04:16:44;;;;;;;14.95;5.05;;;;;;;30.04;65.31;100005.22;1702364;83;21052;-72
2021/06/30 04:19:10;;;;;;;12.23;4.75;;;;;;;29.29;74.07;100014.80;1698372;83;20933;-71
2021/06/30 04:21:38;;;;;;;15.88;5.30;;;;;;;28.86;83.17;100010.63;1703062;83;21451;-71
2021/06/30 04:24:07;;;;;;;9.83;4.78;;;;;;;28.60;90.29;100011.34;1694936;83;21010;-71
2021/06/30 04:26:36;;;;;;;13.13;5.80;;;;;;;28.22;96.06;100010.16;1703224;83;21134;-72
2021/06/30 04:29:04;;;;;;;14.33;4.70;;;;;;;28.15;100.00;100010.61;1696158;83;21547;-70
2021/06/30 04:31:30;;;;;;;10.88;5.10;;;;;;;28.61;100.00;100006.77;1698723;83;21024;-73
2021/06/30 04:33:57;;;;;;;10.58;4.85;;;;;;;29.67;98.67;100006.71;1696046;83;20927;-71
2021/06/30 04:36:24;;;;;;;12.73;5.45;;;;;;;30.81;85.04;100006.70;1696573;83;21483;-73
2021/06/30 04:38:50;;;;;;;9.10;5.00;;;;;;;31.68;72.69;100006.34;1696376;83;21183;-71
2021/06/30 04:41:17;;;;;;;14.25;4.92;;;;;;;32.75;65.79;100003.80;1695795;83;20960;-72
2021/06/30 04:43:44;;;;;;;8.55;4.20;;;;;;;33.89;58.00;100009.06;1695396;83;21581;-70
2021/06/30 04:46:11;;;;;;;7.80;3.90;;;;;;;34.74;52.06;100005.59;1695221;83;21483;-72
2021/06/30 04:48:38;;;;;;;14.18;3.83;;;;;;;35.58;47.60;100003.20;1695978;83;21426;-72
2021/06/30 04:51:06;;;;;;;5.40;3.27;;;;;;;35.98;45.01;100008.80;1695780;83;21170;-71
2021/06/30 04:53:32;;;;;;;6.72;3.52;;;;;;;36.45;43.74;100009.59;1694470;83;20996;-69
2021/06/30 04:55:59;;;;;;;8.58;3.52;;;;;;;36.86;42.42;100006.56;1703372;83;21060;-72
2021/06/30 04:58:26;;;;;;;7.65;3.83;;;;;;;37.11;41.38;100006.91;1695841;83;21174;-72
2021/06/30 05:00:55;;;;;;;7.15;4.22;;;;;;;37.53;40.08;100017.34;1696058;83;21049;-72
2021/06/30 05:03:26;;;;;;;7.23;3.83;;;;;;;38.18;38.88;100012.19;1695583;83;21166;-71
2021/06/30 05:05:56;;;;;;;16.17;4.85;;;;;;;38.36;37.91;100012.95;1694982;83;21048;-71
2021/06/30 05:08:23;;;;;;;4.60;3.80;;;;;;;38.97;36.48;100013.37;1695616;83;21036;-72
2021/06/30 05:10:53;;;;;;;5.37;3.40;;;;;;;39.45;35.28;100010.50;1695957;83;21067;-72
2021/06/30 05:13:21;;;;;;;6.10;3.92;;;;;;;39.46;34.77;100014.20;1671921;84;21016;-70
2021/06/30 05:15:48;;;;;;;4.92;3.98;;;;;;;39.83;34.26;100011.20;1664677;85;21150;-68
2021/06/30 05:18:14;;;;;;;5.55;4.10;;;;;;;39.97;33.88;100008.28;1671160;84;21051;-72
2021/06/30 05:20:41;;;;;;;4.22;3.50;;;;;;;40.33;33.36;100015.94;1664474;85;21011;-72
2021/06/30 05:23:08;;;;;;;4.83;3.72;;;;;;;40.65;32.77;100018.67;1670382;84;21083;-72
2021/06/30 05:25:34;;;;;;;5.97;3.70;;;;;;;40.80;31.96;100014.73;1655512;85;21555;-71
2021/06/30 05:28:01;;;;;;;4.62;3.80;;;;;;;40.93;31.38;100008.84;1664487;85;21521;-72
2021/06/30 05:30:28;;;;;;;3.92;3.52;;;;;;;41.00;31.06;100012.36;1663823;86;21082;-71
2021/06/30 05:32:54;;;;;;;4.47;3.58;;;;;;;41.08;30.59;100013.11;1664453;85;21453;-71
2021/06/30 05:35:22;;;;;;;5.28;4.28;;;;;;;41.04;30.99;100007.66;1663703;85;21078;-72
2021/06/30 05:37:49;;;;;;;5.87;3.62;;;;;;;41.06;30.76;100011.34;1670453;84;21074;-69
2021/06/30 05:40:16;;;;;;;6.87;3.80;;;;;;;41.08;29.75;100013.11;1653685;85;21085;-71
2021/06/30 05:42:44;;;;;;;3.22;2.85;;;;;;;40.83;30.20;100013.14;1649823;85;22284;-71
2021/06/30 05:45:15;;;;;;;3.60;3.30;;;;;;;40.93;29.83;100014.30;1671232;84;21481;-71
2021/06/30 05:47:39;;;;;;;5.00;3.85;;;;;;;41.02;28.81;100006.48;1641537;85;21524;-70
2021/06/30 05:50:07;;;;;;;3.85;3.30;;;;;;;41.14;29.13;100010.14;1664326;85;20940;-71
2021/06/30 05:52:34;;;;;;;4.30;3.90;;;;;;;41.22;29.65;100019.89;1640514;85;21185;-69
2021/06/30 05:55:01;;;;;;;4.80;3.87;;;;;;;41.52;29.42;100019.95;1664389;85;21284;-71
2021/06/30 05:57:27;;;;;;;5.78;3.67;;;;;;;41.65;28.50;100023.02;1663865;85;21010;-72
2021/06/30 05:59:54;;;;;;;4.30;3.55;;;;;;;41.47;28.17;100027.22;1664009;85;21126;-70
2021/06/30 06:02:21;;;;;;;4.03;3.45;;;;;;;41.21;28.05;100021.05;1663111;85;21581;-69
2021/06/30 06:04:47;;;;;;;4.47;2.83;;;;;;;41.16;28.13;100021.47;1662126;85;21113;-70
2021/06/30 06:07:14;;;;;;;4.17;3.00;;;;;;;41.28;27.37;100014.77;1645819;85;21004;-69
2021/06/30 06:09:40;;;;;;;8.40;3.40;;;;;;;41.42;27.58;100021.59;1690887;83;20969;-70
2021/06/30 06:12:09;;;;;;;16.62;5.28;;;;;;;41.57;27.13;100019.55;1661796;85;21050;-72
2021/06/30 06:14:35;;;;;;;6.95;3.55;;;;;;;41.67;26.43;100013.22;1661171;85;21039;-71
2021/06/30 06:17:03;;;;;;;4.28;3.10;;;;;;;41.65;26.96;100018.33;1655723;85;21557;-70
2021/06/30 06:19:29;;;;;;;4.92;2.87;;;;;;;41.39;27.13;100021.56;1643199;87;21113;-72
2021/06/30 06:21:58;;;;;;;4.00;3.60;;;;;;;41.48;27.06;100012.36;1638422;85;21102;-69
2021/06/30 06:24:24;;;;;;;3.08;2.55;;;;;;;41.41;27.07;100019.23;1690129;83;21033;-69
2021/06/30 06:26:52;;;;;;;3.42;3.02;;;;;;;41.38;26.87;100018.66;1662247;85;21913;-69
2021/06/30 06:29:19;;;;;;;4.37;3.20;;;;;;;41.44;26.91;100010.23;1644732;87;21213;-70
2021/06/30 06:31:48;;;;;;;2.80;2.45;;;;;;;41.58;27.02;100012.89;1690543;83;21526;-68
2021/06/30 06:34:19;;;;;;;3.00;2.70;;;;;;;41.79;26.42;100013.36;1691264;83;20961;-71
2021/06/30 06:36:44;;;;;;;5.97;3.12;;;;;;;41.88;26.56;100012.34;1666972;85;21001;-71
2021/06/30 06:39:11;;;;;;;4.15;3.47;;;;;;;41.97;25.88;100006.40;1638834;85;21129;-68
2021/06/30 06:41:37;;;;;;;5.08;3.47;;;;;;;41.85;25.85;100009.63;1667553;85;21549;-70
2021/06/30 06:44:05;;;;;;;2.77;2.58;;;;;;;41.59;25.75;100008.97;1662067;86;20999;-72
2021/06/30 06:46:32;;;;;;;6.53;3.55;;;;;;;41.20;25.93;100010.52;1660030;85;21478;-69
2021/06/30 06:48:58;;;;;;;3.00;2.27;;;;;;;40.67;26.44;100016.91;1661495;85;21043;-69
2021/06/30 06:51:25;;;;;;;2.60;2.17;;;;;;;40.00;26.87;100015.11;1659879;85;22139;-70
2021/06/30 06:53:52;;;;;;;3.42;2.20;;;;;;;39.51;26.92;100013.04;1639590;86;21199;-69
2021/06/30 06:56:24;;;;;;;4.42;2.25;;;;;;;39.18;27.35;100020.30;1649691;85;21513;-70
2021/06/30 06:58:47;;;;;;;3.33;2.30;;;;;;;39.31;26.26;100018.82;1696540;83;21037;-70
2021/06/30 07:01:14;;;;;;;4.55;2.17;;;;;;;39.42;26.39;100018.86;1662395;85;20924;-72
2021/06/30 07:03:41;;;;;;;3.72;2.08;;;;;;;39.58;26.14;100016.56;1659990;85;21834;-72
2021/06/30 07:06:07;;;;;;;2.85;2.10;;;;;;;39.76;26.51;100016.64;1663499;85;21166;-69
2021/06/30 07:08:34;;;;;;;2.70;2.42;;;;;;;39.93;26.70;100011.59;1669500;85;20956;-68
2021/06/30 07:11:00;;;;;;;2.92;2.25;;;;;;;40.05;26.86;100009.28;1663255;85;21502;-70
2021/06/30 07:13:29;;;;;;;2.33;1.85;;;;;;;40.05;27.10;100012.60;1668743;84;22111;-68
2021/06/30 07:15:55;;;;;;;4.83;2.02;;;;;;;40.11;26.75;100011.02;1671641;85;21024;-73
2021/06/30 07:18:22;;;;;;;3.20;2.02;;;;;;;40.14;26.69;100007.55;1666365;84;22166;-69
2021/06/30 07:20:48;;;;;;;5.05;2.50;;;;;;;40.25;26.51;100012.43;1696927;83;20948;-71
2021/06/30 07:23:14;;;;;;;3.30;2.02;;;;;;;40.45;26.78;100010.06;1699751;83;21096;-71
2021/06/30 07:25:43;;;;;;;5.72;2.58;;;;;;;40.54;26.49;100006.95;1702980;83;20971;-70
2021/06/30 07:28:09;;;;;;;3.20;2.42;;;;;;;40.51;26.72;100008.51;1690976;83;21033;-71
2021/06/30 07:30:36;;;;;;;2.62;2.30;;;;;;;40.60;26.36;100011.63;1701305;83;21143;-70
2021/06/30 07:33:03;;;;;;;3.95;2.25;;;;;;;40.46;26.63;100007.55;1672575;84;21015;-71
2021/06/30 07:35:29;;;;;;;3.80;2.27;;;;;;;40.28;26.92;100007.55;1646203;85;21086;-70
2021/06/30 07:37:56;;;;;;;6.95;2.87;;;;;;;40.03;27.42;100006.73;1636584;85;21480;-72
2021/06/30 07:40:22;;;;;;;4.80;2.87;;;;;;;39.96;28.54;100007.50;1662143;84;21125;-74
2021/06/30 07:42:49;;;;;;;3.25;2.50;;;;;;;40.05;28.41;100006.55;1641746;85;21176;-72
2021/06/30 07:45:16;;;;;;;3.02;2.37;;;;;;;40.02;28.52;100008.69;1647204;85;20964;-71
2021/06/30 07:47:42;;;;;;;5.08;2.70;;;;;;;39.94;28.55;100007.72;1653460;84;21580;-71
2021/06/30 07:50:10;;;;;;;3.10;2.15;;;;;;;39.57;27.96;100007.41;1660074;84;21106;-71
2021/06/30 07:52:37;;;;;;;3.25;2.60;;;;;;;39.15;28.34;100010.94;1658371;84;21069;-73
2021/06/30 07:55:05;;;;;;;6.12;2.65;;;;;;;39.10;28.59;100014.63;1660769;84;21649;-74
2021/06/30 07:57:31;;;;;;;2.83;2.22;;;;;;;39.20;28.66;100002.97;1663151;84;21509;-71
2021/06/30 07:59:58;;;;;;;4.62;2.40;;;;;;;39.33;28.79;99998.78;1657373;84;21136;-73
2021/06/30 08:02:24;;;;;;;3.58;2.58;;;;;;;39.36;29.52;99995.28;1668483;84;21384;-72
2021/06/30 08:04:51;;;;;;;2.87;2.17;;;;;;;39.27;29.57;99994.84;1695180;83;21534;-71
2021/06/30 08:07:18;;;;;;;5.20;2.72;;;;;;;39.21;29.84;99999.10;1687956;83;21222;-71
2021/06/30 08:09:44;;;;;;;3.10;2.40;;;;;;;39.22;30.05;99993.84;1661311;84;21156;-69
2021/06/30 08:12:12;;;;;;;3.85;3.05;;;;;;;39.21;29.16;99998.30;1660898;84;21060;-72
2021/06/30 08:14:40;;;;;;;3.02;2.00;;;;;;;38.98;29.39;99991.77;1661586;85;21030;-73
2021/06/30 08:17:07;;;;;;;3.37;2.15;;;;;;;38.60;28.92;99991.13;1659964;85;21026;-70
2021/06/30 08:19:34;;;;;;;4.85;2.30;;;;;;;38.43;29.23;99987.92;1663401;85;22265;-70
2021/06/30 08:22:00;;;;;;;3.72;2.20;;;;;;;38.48;28.81;99985.42;1662181;85;21003;-71
2021/06/30 08:24:27;;;;;;;4.03;2.92;;;;;;;38.46;29.28;99979.58;1667862;85;21080;-70
2021/06/30 08:26:55;;;;;;;2.65;2.12;;;;;;;38.65;29.39;99980.67;1668626;84;20975;-71
2021/06/30 08:29:24;;;;;;;5.72;2.30;;;;;;;38.85;29.56;99981.20;1666472;85;21026;-75
2021/06/30 08:31:51;;;;;;;2.70;2.35;;;;;;;39.14;29.43;99977.26;1670675;84;21142;-69
2021/06/30 08:34:18;;;;;;;2.75;2.00;;;;;;;39.30;28.85;99990.00;1698230;83;21573;-71
2021/06/30 08:36:44;;;;;;;3.55;2.27;;;;;;;39.42;27.71;99987.50;1701028;83;22280;-72
2021/06/30 08:39:12;;;;;;;2.52;1.98;;;;;;;39.31;27.65;99983.37;1692136;83;20985;-71
2021/06/30 08:41:39;;;;;;;3.37;1.92;;;;;;;38.87;28.41;99988.98;1696836;83;20928;-75
2021/06/30 08:44:05;;;;;;;5.90;2.25;;;;;;;38.82;28.00;99993.44;1695263;83;21167;-69
2021/06/30 08:46:32;;;;;;;5.45;2.85;;;;;;;38.59;27.35;99988.22;1694334;83;21056;-73
2021/06/30 08:48:59;;;;;;;3.52;2.40;;;;;;;38.35;28.01;99987.67;1695383;83;21023;-72
2021/06/30 08:51:26;;;;;;;3.72;2.40;;;;;;;38.13;28.92;99990.77;1707492;83;21595;-73
2021/06/30 08:53:55;;;;;;;3.20;2.80;;;;;;;37.90;29.56;99985.52;1691794;83;21032;-75
2021/06/30 08:56:33;;;;;;;2.87;2.37;;;;;;;37.73;29.95;99989.61;1690085;83;21150;-70
2021/06/30 08:59:00;;;;;;;5.90;2.72;;;;;;;37.62;30.63;99985.19;1693217;83;21021;-72
2021/06/30 09:01:30;;;;;;;4.53;2.40;;;;;;;37.70;31.12;99986.84;1694104;83;21452;-75
2021/06/30 09:03:57;;;;;;;3.12;2.40;;;;;;;37.70;30.57;99981.41;1675197;83;20988;-73
2021/06/30 09:06:24;;;;;;;3.62;2.40;;;;;;;37.74;30.92;99980.28;1681842;85;21056;-73
2021/06/30 09:08:55;;;;;;;2.42;2.10;;;;;;;38.09;30.08;99969.55;1682779;83;21580;-72
2021/06/30 09:11:26;;;;;;;4.28;2.58;;;;;;;38.45;30.24;99967.91;1682514;83;21416;-73
2021/06/30 09:14:10;;;;;;;;;;;;;;;38.56;28.96;99971.27;1660917;85;21178;-71
2021/06/30 09:17:13;;;;;;;2.85;2.22;;;;;;;38.56;28.73;99963.09;1683398;83;20189;-71
2021/06/30 09:20:06;;;;;;;3.92;2.72;;;;;;;38.72;28.34;99956.79;1678685;83;21049;-71
2021/06/30 09:22:51;;;;;;;8.03;2.90;;;;;;;38.93;28.58;99951.45;1681776;83;21158;-74
2021/06/30 09:25:36;;;;;;;3.50;2.65;;;;;;;39.11;28.43;99941.22;1649827;85;20991;-71
2021/06/30 09:28:22;;;;;;;3.52;2.40;;;;;;;39.15;28.31;99934.61;1650259;86;20955;-71
2021/06/30 09:31:06;;;;;;;12.63;3.58;;;;;;;39.16;27.39;99932.66;1681992;83;21122;-76
2021/06/30 09:33:51;;;;;;;3.95;2.67;;;;;;;39.11;27.83;99927.59;1672957;83;20999;-74
2021/06/30 09:36:20;;;;;;;4.72;2.35;;;;;;;39.24;27.82;99920.62;1683031;83;21195;-70
2021/06/30 09:38:48;;;;;;;3.47;1.90;;;;;;;39.50;27.18;99922.84;1684377;83;21354;-76
2021/06/30 09:41:27;;;;;;;3.35;2.42;;;;;;;39.28;27.55;99915.19;1660231;85;21007;-73
2021/06/30 09:44:11;;;;;;;4.67;2.45;;;;;;;39.16;27.53;99912.20;1684140;83;21443;-74
2021/06/30 09:46:40;;;;;;;5.17;2.60;;;;;;;39.27;27.30;99902.73;1651179;85;21029;-73
2021/06/30 09:49:19;;;;;;;6.60;2.30;;;;;;;38.90;26.68;99909.20;1684359;83;21212;-74
2021/06/30 09:52:09;;;;;;;3.50;2.22;;;;;;;37.96;27.80;99924.16;1660022;85;21086;-71
2021/06/30 09:54:38;;;;;;;;;;;;;;;36.74;28.70;99923.91;1657800;85;21023;-73
2021/06/30 09:57:10;;;;;;;3.95;2.37;;;;;;;35.66;30.41;99920.06;1685480;83;20531;-71
2021/06/30 09:59:48;;;;;;;3.35;2.50;;;;;;;34.92;31.59;99920.69;1673951;83;20969;-72
2021/06/30 10:02:18;;;;;;;2.95;2.50;;;;;;;34.20;32.69;99916.93;1670258;83;21249;-71
2021/06/30 10:04:51;;;;;;;3.27;2.37;;;;;;;33.55;33.81;99925.31;1678212;84;20973;-71
2021/06/30 10:07:25;;;;;;;15.43;3.85;;;;;;;32.97;35.04;99932.37;1675064;84;21093;-71
2021/06/30 10:09:57;;;;;;;5.67;3.25;;;;;;;32.53;35.70;99937.56;1684705;83;21986;-73
2021/06/30 10:12:25;;;;;;;5.67;3.15;;;;;;;32.11;36.92;99936.96;1684969;83;21100;-69
2021/06/30 10:14:54;;;;;;;5.97;4.00;;;;;;;31.68;38.55;99922.81;1685236;83;20936;-71
2021/06/30 10:17:21;;;;;;;8.28;4.47;;;;;;;31.29;40.20;99918.69;1683988;83;21071;-72
2021/06/30 10:19:51;;;;;;;13.55;6.15;;;;;;;30.93;42.23;99914.70;1683690;83;20992;-72
2021/06/30 10:22:18;;;;;;;13.62;5.50;;;;;;;30.64;44.77;99920.87;1681165;83;21123;-73
2021/06/30 10:24:45;;;;;;;9.33;4.08;;;;;;;30.35;46.69;99918.20;1680499;83;21513;-71
2021/06/30 10:27:13;;;;;;;4.33;2.65;;;;;;;30.16;49.41;99927.44;1684890;83;21117;-71
2021/06/30 10:29:43;;;;;;;2.87;2.47;;;;;;;29.76;59.05;99924.98;1684736;83;21605;-71
2021/06/30 10:32:15;;;;;;;4.70;2.92;;;;;;;29.39;66.97;99930.44;1684442;83;20964;-71
2021/06/30 10:34:49;;;;;;;8.63;2.47;;;;;;;28.76;75.28;99935.27;1685529;83;21003;-72
2021/06/30 10:37:28;;;;;;;5.93;2.70;;;;;;;28.23;84.95;99954.13;1687375;84;20949;-71
2021/06/30 10:40:07;;;;;;;33.13;4.97;;;;;;;27.75;94.45;99972.20;1663404;85;21158;-71
2021/06/30 10:42:38;;;;;;;7.00;3.13;;;;;;;27.17;100.00;100019.23;1660812;85;20987;-70
2021/06/30 10:45:21;;;;;;;5.27;2.33;;;;;;;26.68;100.00;100023.37;1661951;85;21536;-70
2021/06/30 10:48:09;;;;;;;4.03;2.40;;;;;;;26.24;100.00;100025.97;1685068;83;20929;-70
2021/06/30 10:50:55;;;;;;;3.63;2.47;;;;;;;26.08;100.00;100010.73;1691504;84;21067;-72
2021/06/30 10:53:29;;;;;;;3.23;2.30;;;;;;;26.11;100.00;100000.80;1659936;85;21170;-70
2021/06/30 10:56:06;;;;;;;5.73;2.40;;;;;;;26.72;100.00;100004.85;1672449;83;21367;-71
2021/06/30 10:58:32;;;;;;;4.27;2.23;;;;;;;27.63;100.00;100000.28;1660173;85;21061;-73
2021/06/30 11:01:04;;;;;;;5.07;2.20;;;;;;;28.58;99.76;99988.61;1660128;85;21039;-71
2021/06/30 11:03:40;;;;;;;3.40;1.87;;;;;;;28.98;91.61;99979.20;1681880;83;21008;-71
2021/06/30 11:06:13;;;;;;;4.67;2.10;;;;;;;29.32;84.81;99977.92;1694531;83;22049;-70
2021/06/30 11:09:05;;;;;;;3.03;1.90;;;;;;;29.58;80.69;99988.67;1695457;83;21391;-70
2021/06/30 11:11:38;;;;;;;4.30;2.07;;;;;;;29.84;71.50;100000.52;1695048;83;21056;-71
2021/06/30 11:14:13;;;;;;;3.17;1.85;;;;;;;29.85;69.76;100011.50;1695127;83;21430;-70
2021/06/30 11:16:48;;;;;;;2.50;1.72;;;;;;;29.84;68.66;100020.12;1699725;83;20917;-71
2021/06/30 11:19:20;;;;;;;8.68;2.72;;;;;;;29.55;72.33;100026.91;1685869;83;21095;-75
2021/06/30 11:21:55;;;;;;;4.65;2.25;;;;;;;29.21;100.00;100029.00;1694707;83;21301;-74
2021/06/30 11:24:43;;;;;;;5.47;2.30;;;;;;;28.35;100.00;99999.91;1694865;83;21023;-73
2021/06/30 11:27:24;;;;;;;4.47;2.50;;;;;;;27.56;100.00;100001.80;1691899;83;20957;-77
2021/06/30 11:29:58;;;;;;;5.45;2.98;;;;;;;27.04;100.00;100005.28;1704516;83;20988;-77
2021/06/30 11:32:42;;;;;;;5.40;2.90;;;;;;;26.71;100.00;100001.39;1696797;83;21702;-74
2021/06/30 11:35:20;;;;;;;5.40;2.53;;;;;;;26.66;100.00;99998.25;1688527;83;20999;-76